»·PEaware :: N50TC PHNL-KVNY

N50TC :: PHNL-KVNY

FLIGHT INFORMATION

Flight Status: Arrived
Operator: Privately registered:
United States
More flights under this callsign
Pilot: Steven Roesler (3445)
Aircraft: BOEING 737-700
(B737)
More flights by this aircraft type
Origin: PHNL Honolulu Intl
United States
Destination: KVNY Van Nuys
United States
More flights between these airports :: More routes between these airports
Route: MKK4 CLUTS R465 CEBEN R465 CIVIT R585 AUDIA C1155 MQO FLW FERN5
File this flight plan on PilotEdge
Remarks:
Altitude:
(Current/Filed)
41,000ft
Speed:
(Current/Filed)
455kts
Departed: 13-Jun-14 03:42 AM
Arrived: 13-Jun-14 08:39 AM
Distance/Time
Traveled:
2215nm/4:57
Distance/Time
To Go:
Arrived

Flight Plot

Page will automatically refresh every two minutes.


Map Options




Map Legend


Flown Route
Filed Route
Departure Airport
Arrival Airport
Navaid (VOR, NDB)
Fix

Horizontal Profiles

Position Reports

Time Latitude Longitude Heading Altitude Ground
Speed
13-Jun-14 03:12 21.320795 -157.913797 51 21ft 0kts
13-Jun-14 03:13 21.320795 -157.913797 51 21ft 0kts
13-Jun-14 03:14 21.320795 -157.913797 51 21ft 0kts
13-Jun-14 03:15 21.320795 -157.913797 51 21ft 0kts
13-Jun-14 03:16 21.320795 -157.913797 51 21ft 0kts
13-Jun-14 03:17 21.320795 -157.913797 51 21ft 0kts
13-Jun-14 03:18 21.320795 -157.913797 51 21ft 0kts
13-Jun-14 03:19 21.320795 -157.913797 51 21ft 0kts
13-Jun-14 03:20 21.320795 -157.913797 51 21ft 0kts
13-Jun-14 03:21 21.320795 -157.913797 51 21ft 0kts
13-Jun-14 03:22 21.320795 -157.913797 51 21ft 0kts
13-Jun-14 03:23 21.320795 -157.913797 51 21ft 0kts
13-Jun-14 03:24 21.320795 -157.913797 51 21ft 0kts
13-Jun-14 03:25 21.320795 -157.913797 51 21ft 0kts
13-Jun-14 03:26 21.320795 -157.913797 51 21ft 0kts
13-Jun-14 03:27 21.320795 -157.913797 51 21ft 0kts
13-Jun-14 03:28 21.320795 -157.913797 51 21ft 0kts
13-Jun-14 03:29 21.320795 -157.913797 51 21ft 0kts
13-Jun-14 03:30 21.320795 -157.913797 51 21ft 0kts
13-Jun-14 03:31 21.320795 -157.913797 51 21ft 0kts
13-Jun-14 03:32 21.320795 -157.913797 51 21ft 0kts
13-Jun-14 03:33 21.320795 -157.913797 51 21ft 0kts
13-Jun-14 03:34 21.320795 -157.913797 51 21ft 0kts
13-Jun-14 03:35 21.320796 -157.913796 51 21ft 0kts
13-Jun-14 03:36 21.321093 -157.913951 310 21ft 9kts
13-Jun-14 03:37 21.319902 -157.916310 215 21ft 16kts
13-Jun-14 03:38 21.315734 -157.921579 233 21ft 25kts
13-Jun-14 03:39 21.312988 -157.926164 315 21ft 9kts
13-Jun-14 03:40 21.317172 -157.922529 52 21ft 99kts
13-Jun-14 03:41 21.329478 -157.881968 108 2754ft 164kts
13-Jun-14 03:42 21.311575 -157.820061 103 4760ft 263kts
13-Jun-14 03:43 21.290898 -157.741889 104 9087ft 283kts
13-Jun-14 03:44 21.267879 -157.655091 105 12150ft 334kts
13-Jun-14 03:45 21.239393 -157.547944 105 14024ft 398kts
13-Jun-14 03:46 21.208823 -157.431971 104 17068ft 407kts
13-Jun-14 03:47 21.176775 -157.311752 104 19301ft 429kts
13-Jun-14 03:48 21.152705 -157.184634 81 20962ft 444kts
13-Jun-14 03:49 21.212230 -157.071071 48 22968ft 445kts
13-Jun-14 03:50 21.292185 -156.964354 48 24235ft 469kts
13-Jun-14 03:51 21.376282 -156.852974 48 25269ft 488kts
13-Jun-14 03:52 21.462932 -156.738421 49 26525ft 493kts
13-Jun-14 03:53 21.549254 -156.623590 49 28112ft 497kts
13-Jun-14 03:54 21.635879 -156.508280 49 29647ft 498kts
13-Jun-14 03:55 21.722871 -156.392105 49 31146ft 498kts
13-Jun-14 03:56 21.809951 -156.275614 49 32758ft 490kts
13-Jun-14 03:57 21.894654 -156.162412 49 34475ft 484kts
13-Jun-14 03:58 21.979557 -156.048558 49 35681ft 486kts
13-Jun-14 03:59 22.062975 -155.936365 49 37513ft 470kts
13-Jun-14 04:00 22.130821 -155.844947 49 38588ft 464kts
13-Jun-14 04:01 22.225485 -155.717124 49 39605ft 465kts
13-Jun-14 04:02 22.305739 -155.608524 49 40748ft 457kts
13-Jun-14 04:03 22.371915 -155.518801 49 41162ft 461kts
13-Jun-14 04:04 22.451960 -155.410063 49 41122ft 460kts
13-Jun-14 04:05 22.531837 -155.301285 49 41127ft 461kts
13-Jun-14 04:06 22.611602 -155.192476 49 41120ft 460kts
13-Jun-14 04:07 22.691293 -155.083578 49 41130ft 460kts
13-Jun-14 04:08 22.771131 -154.974188 49 41113ft 464kts
13-Jun-14 04:09 22.852049 -154.863319 50 41110ft 471kts
13-Jun-14 04:10 22.933210 -154.751539 50 41109ft 469kts
13-Jun-14 04:11 23.013783 -154.639409 53 41110ft 471kts
13-Jun-14 04:12 23.085868 -154.520363 55 41111ft 470kts
13-Jun-14 04:13 23.157825 -154.401157 55 41106ft 470kts
13-Jun-14 04:14 23.229987 -154.282235 55 41072ft 470kts
13-Jun-14 04:15 23.302609 -154.162477 55 41069ft 470kts
13-Jun-14 04:16 23.374658 -154.043277 55 41069ft 470kts
13-Jun-14 04:17 23.446589 -153.923963 55 41069ft 470kts
13-Jun-14 04:18 23.518424 -153.804517 55 41069ft 470kts
13-Jun-14 04:19 23.590183 -153.684910 55 41069ft 470kts
13-Jun-14 04:20 23.661953 -153.565250 55 41069ft 470kts
13-Jun-14 04:21 23.733435 -153.445359 55 41069ft 470kts
13-Jun-14 04:22 23.805007 -153.325380 55 41069ft 470kts
13-Jun-14 04:23 23.876672 -153.205406 55 41069ft 470kts
13-Jun-14 04:24 23.948152 -153.085305 55 41069ft 470kts
13-Jun-14 04:25 24.019575 -152.965562 55 41069ft 470kts
13-Jun-14 04:26 24.091080 -152.845330 55 41077ft 470kts
13-Jun-14 04:27 24.162470 -152.724872 55 41089ft 470kts
13-Jun-14 04:28 24.233758 -152.604248 55 41089ft 470kts
13-Jun-14 04:29 24.304936 -152.483498 55 41089ft 470kts
13-Jun-14 04:30 24.376008 -152.362626 55 41089ft 470kts
13-Jun-14 04:31 24.447011 -152.241571 56 41089ft 470kts
13-Jun-14 04:32 24.517896 -152.120417 56 41089ft 471kts
13-Jun-14 04:33 24.588688 -151.999117 56 41089ft 471kts
13-Jun-14 04:34 24.659426 -151.877606 56 41089ft 471kts
13-Jun-14 04:35 24.730030 -151.756021 56 41089ft 471kts
13-Jun-14 04:36 24.800543 -151.634284 56 41089ft 471kts
13-Jun-14 04:37 24.870984 -151.512364 56 41089ft 471kts
13-Jun-14 04:38 24.941295 -151.390357 56 41089ft 471kts
13-Jun-14 04:39 25.011559 -151.268120 56 41089ft 471kts
13-Jun-14 04:40 25.081684 -151.145812 56 41089ft 471kts
13-Jun-14 04:41 25.151715 -151.023352 56 41088ft 471kts
13-Jun-14 04:42 25.221671 -150.900706 56 41083ft 471kts
13-Jun-14 04:43 25.291496 -150.777971 56 41084ft 471kts
13-Jun-14 04:44 25.361270 -150.655006 56 41083ft 471kts
13-Jun-14 04:45 25.430910 -150.531955 56 41075ft 471kts
13-Jun-14 04:46 25.500486 -150.408694 56 41071ft 471kts
13-Jun-14 04:47 25.569927 -150.285346 56 41064ft 471kts
13-Jun-14 04:48 25.627984 -150.181968 56 41065ft 471kts
13-Jun-14 04:49 25.697259 -150.058312 56 41061ft 471kts
13-Jun-14 04:50 25.777904 -149.913945 57 41059ft 471kts
13-Jun-14 04:51 25.835489 -149.810582 57 41059ft 471kts
13-Jun-14 04:52 25.904456 -149.686483 57 41059ft 471kts
13-Jun-14 04:53 25.973784 -149.561394 57 41059ft 471kts
13-Jun-14 04:54 26.042541 -149.436998 57 41044ft 471kts
13-Jun-14 04:55 26.111195 -149.312450 57 41011ft 471kts
13-Jun-14 04:56 26.179748 -149.187744 57 41009ft 471kts
13-Jun-14 04:57 26.248200 -149.062879 57 41009ft 471kts
13-Jun-14 04:58 26.316569 -148.937823 58 41009ft 472kts
13-Jun-14 04:59 26.384971 -148.812355 58 41009ft 472kts
13-Jun-14 05:00 26.453278 -148.686713 58 41009ft 472kts
13-Jun-14 05:01 26.521482 -148.560910 58 41009ft 472kts
13-Jun-14 05:02 26.589585 -148.434939 58 41009ft 472kts
13-Jun-14 05:03 26.657561 -148.308848 58 41009ft 472kts
13-Jun-14 05:04 26.725445 -148.182571 58 41009ft 473kts
13-Jun-14 05:05 26.793194 -148.056184 58 41009ft 473kts
13-Jun-14 05:06 26.860855 -147.929601 58 41009ft 473kts
13-Jun-14 05:07 26.928383 -147.802905 58 41009ft 473kts
13-Jun-14 05:08 26.995847 -147.675961 58 41009ft 473kts
13-Jun-14 05:09 27.063153 -147.548948 58 41009ft 473kts
13-Jun-14 05:10 27.130288 -147.422221 59 41009ft 473kts
13-Jun-14 05:11 27.197269 -147.294843 59 41010ft 472kts
13-Jun-14 05:12 27.260740 -147.166577 63 41001ft 469kts
13-Jun-14 05:13 27.316867 -147.034436 63 40999ft 465kts
13-Jun-14 05:14 27.372896 -146.902997 63 40999ft 464kts
13-Jun-14 05:15 27.429174 -146.771873 63 40999ft 464kts
13-Jun-14 05:16 27.485074 -146.641201 63 40999ft 462kts
13-Jun-14 05:17 27.540756 -146.510468 63 40999ft 461kts
13-Jun-14 05:18 27.596222 -146.379769 63 40999ft 460kts
13-Jun-14 05:19 27.651824 -146.248310 63 40999ft 460kts
13-Jun-14 05:20 27.706885 -146.117701 63 41000ft 460kts
13-Jun-14 05:21 27.761814 -145.986977 63 41000ft 460kts
13-Jun-14 05:22 27.816505 -145.856399 63 40999ft 458kts
13-Jun-14 05:23 27.871080 -145.725671 63 41000ft 460kts
13-Jun-14 05:24 27.925647 -145.594533 63 40999ft 460kts
13-Jun-14 05:25 27.980133 -145.463159 63 40999ft 460kts
13-Jun-14 05:26 28.034544 -145.331532 63 40999ft 456kts
13-Jun-14 05:27 28.088134 -145.201463 63 40999ft 453kts
13-Jun-14 05:28 28.141473 -145.071558 63 41000ft 454kts
13-Jun-14 05:29 28.194676 -144.941595 64 40999ft 453kts
13-Jun-14 05:30 28.247706 -144.811604 64 40975ft 453kts
13-Jun-14 05:31 28.300619 -144.681467 64 40950ft 453kts
13-Jun-14 05:32 28.353428 -144.551155 64 40949ft 453kts
13-Jun-14 05:33 28.406099 -144.420749 65 40949ft 454kts
13-Jun-14 05:34 28.458778 -144.289884 65 40949ft 454kts
13-Jun-14 05:35 28.502590 -144.180707 65 40947ft 454kts
13-Jun-14 05:36 28.555054 -144.049565 65 40947ft 454kts
13-Jun-14 05:37 28.616051 -143.896530 65 40942ft 454kts
13-Jun-14 05:38 28.668207 -143.765190 65 40941ft 454kts
13-Jun-14 05:39 28.711621 -143.655522 65 40939ft 454kts
13-Jun-14 05:40 28.763570 -143.523876 65 40939ft 454kts
13-Jun-14 05:41 28.815393 -143.392096 65 40939ft 454kts
13-Jun-14 05:42 28.867073 -143.260224 65 40939ft 454kts
13-Jun-14 05:43 28.918639 -143.128182 65 40942ft 454kts
13-Jun-14 05:44 28.970086 -142.995984 65 40949ft 454kts
13-Jun-14 05:45 29.021326 -142.863855 64 40949ft 458kts
13-Jun-14 05:46 29.073104 -142.729863 65 40949ft 462kts
13-Jun-14 05:47 29.125079 -142.594881 66 40985ft 463kts
13-Jun-14 05:48 29.176993 -142.459566 66 40989ft 463kts
13-Jun-14 05:49 29.228731 -142.324218 66 40989ft 463kts
13-Jun-14 05:50 29.280348 -142.188694 66 40989ft 463kts
13-Jun-14 05:51 29.331803 -142.053099 66 40989ft 463kts
13-Jun-14 05:52 29.383144 -141.917307 66 40990ft 463kts
13-Jun-14 05:53 29.434338 -141.781400 66 40989ft 463kts
13-Jun-14 05:54 29.485391 -141.645366 66 40989ft 463kts
13-Jun-14 05:55 29.536306 -141.509194 67 40989ft 463kts
13-Jun-14 05:56 29.587083 -141.372881 67 40990ft 463kts
13-Jun-14 05:57 29.637738 -141.236383 67 40989ft 463kts
13-Jun-14 05:58 29.688231 -141.099808 67 40989ft 463kts
13-Jun-14 05:59 29.738940 -140.962126 67 40984ft 463kts
13-Jun-14 06:00 29.789147 -140.825288 67 40914ft 463kts
13-Jun-14 06:01 29.839361 -140.688283 67 40899ft 463kts
13-Jun-14 06:02 29.889299 -140.551175 67 40899ft 463kts
13-Jun-14 06:03 29.939331 -140.412882 67 40899ft 463kts
13-Jun-14 06:04 29.986129 -140.274131 69 40899ft 463kts
13-Jun-14 06:05 30.031464 -140.134712 69 40900ft 463kts
13-Jun-14 06:06 30.076630 -139.995678 69 40899ft 463kts
13-Jun-14 06:07 30.122843 -139.854364 70 40900ft 477kts
13-Jun-14 06:08 30.169414 -139.710789 71 40899ft 475kts
13-Jun-14 06:09 30.215716 -139.567243 71 40899ft 475kts
13-Jun-14 06:10 30.261817 -139.423638 71 40899ft 475kts
13-Jun-14 06:11 30.307790 -139.279787 71 40901ft 475kts
13-Jun-14 06:12 30.353882 -139.134921 71 40899ft 475kts
13-Jun-14 06:13 30.399511 -138.990879 71 40899ft 475kts
13-Jun-14 06:14 30.444982 -138.846697 71 40901ft 475kts
13-Jun-14 06:15 30.490164 -138.702799 71 40909ft 475kts
13-Jun-14 06:16 30.535313 -138.558364 71 40909ft 475kts
13-Jun-14 06:17 30.580184 -138.414182 71 40909ft 474kts
13-Jun-14 06:18 30.624825 -138.270093 71 40909ft 472kts
13-Jun-14 06:19 30.669197 -138.126228 71 40909ft 471kts
13-Jun-14 06:20 30.713329 -137.982498 72 40910ft 471kts
13-Jun-14 06:21 30.757256 -137.838786 72 40996ft 471kts
13-Jun-14 06:22 30.800959 -137.695161 72 41028ft 470kts
13-Jun-14 06:23 30.837258 -137.575371 72 41029ft 469kts
13-Jun-14 06:24 30.880906 -137.430725 72 41029ft 469kts
13-Jun-14 06:25 30.924091 -137.286952 72 41029ft 469kts
13-Jun-14 06:26 30.967114 -137.143059 72 41029ft 469kts
13-Jun-14 06:27 31.009951 -136.999128 72 41030ft 468kts
13-Jun-14 06:28 31.052524 -136.855420 72 41029ft 470kts
13-Jun-14 06:29 31.095108 -136.711002 72 41029ft 470kts
13-Jun-14 06:30 31.137538 -136.566449 72 41029ft 471kts
13-Jun-14 06:31 31.179874 -136.421503 72 41029ft 470kts
13-Jun-14 06:32 31.222053 -136.276374 72 41045ft 471kts
13-Jun-14 06:33 31.264099 -136.131120 72 41059ft 471kts
13-Jun-14 06:34 31.305988 -135.985647 72 41059ft 471kts
13-Jun-14 06:35 31.347765 -135.839866 72 41059ft 472kts
13-Jun-14 06:36 31.389435 -135.693753 72 41059ft 472kts
13-Jun-14 06:37 31.431133 -135.546827 72 41068ft 474kts
13-Jun-14 06:38 31.472636 -135.399870 72 41100ft 475kts
13-Jun-14 06:39 31.514085 -135.252374 72 41099ft 476kts
13-Jun-14 06:40 31.555388 -135.104666 72 41099ft 476kts
13-Jun-14 06:41 31.596514 -134.956851 72 41099ft 476kts
13-Jun-14 06:42 31.637482 -134.808863 72 41099ft 476kts
13-Jun-14 06:43 31.678258 -134.660819 72 41099ft 476kts
13-Jun-14 06:44 31.718873 -134.512610 73 41109ft 476kts
13-Jun-14 06:45 31.759316 -134.364273 73 41109ft 476kts
13-Jun-14 06:46 31.799587 -134.215807 73 41109ft 476kts
13-Jun-14 06:47 31.839713 -134.067140 73 41109ft 476kts
13-Jun-14 06:48 31.879802 -133.917732 73 41109ft 484kts
13-Jun-14 06:49 31.920874 -133.763943 73 41110ft 493kts
13-Jun-14 06:50 31.962001 -133.609147 73 41108ft 492kts
13-Jun-14 06:51 32.002818 -133.454597 73 41108ft 493kts
13-Jun-14 06:52 32.043430 -133.299999 73 41109ft 492kts
13-Jun-14 06:53 32.083973 -133.145323 73 41109ft 492kts
13-Jun-14 06:54 32.124209 -132.990534 74 41101ft 493kts
13-Jun-14 06:55 32.164089 -132.835572 74 41076ft 492kts
13-Jun-14 06:56 32.203829 -132.680454 74 41079ft 492kts
13-Jun-14 06:57 32.243259 -132.525040 74 41080ft 493kts
13-Jun-14 06:58 32.282796 -132.369628 74 41079ft 492kts
13-Jun-14 06:59 32.322177 -132.214595 74 41080ft 493kts
13-Jun-14 07:00 32.361334 -132.058985 74 41079ft 492kts
13-Jun-14 07:01 32.400259 -131.903160 74 41078ft 492kts
13-Jun-14 07:02 32.438991 -131.747294 74 41079ft 492kts
13-Jun-14 07:03 32.477529 -131.591145 74 41080ft 493kts
13-Jun-14 07:04 32.516086 -131.434030 74 41079ft 493kts
13-Jun-14 07:05 32.554245 -131.277546 74 41080ft 493kts
13-Jun-14 07:06 32.592196 -131.121013 74 41080ft 493kts
13-Jun-14 07:07 32.629967 -130.964390 74 41078ft 493kts
13-Jun-14 07:08 32.667505 -130.807711 75 41079ft 492kts
13-Jun-14 07:09 32.704851 -130.650862 75 41079ft 493kts
13-Jun-14 07:10 32.735868 -130.519985 75 41078ft 492kts
13-Jun-14 07:11 32.772837 -130.362956 75 41078ft 492kts
13-Jun-14 07:12 32.809625 -130.205824 75 41077ft 493kts
13-Jun-14 07:13 32.846320 -130.048068 75 41078ft 492kts
13-Jun-14 07:14 32.882726 -129.890592 75 41079ft 492kts
13-Jun-14 07:15 32.918920 -129.733020 75 41079ft 492kts
13-Jun-14 07:16 32.954890 -129.575437 75 41078ft 492kts
13-Jun-14 07:17 32.990683 -129.417674 75 41079ft 492kts
13-Jun-14 07:18 33.026330 -129.259622 76 41080ft 493kts
13-Jun-14 07:19 33.061701 -129.101628 76 41079ft 492kts
13-Jun-14 07:20 33.096920 -128.943464 76 41079ft 493kts
13-Jun-14 07:21 33.131900 -128.785186 76 41081ft 492kts
13-Jun-14 07:22 33.166587 -128.627332 76 41079ft 492kts
13-Jun-14 07:23 33.201176 -128.468779 76 41080ft 492kts
13-Jun-14 07:24 33.235691 -128.309605 76 41080ft 492kts
13-Jun-14 07:25 33.269872 -128.150902 76 41079ft 492kts
13-Jun-14 07:26 33.303827 -127.992023 76 41069ft 492kts
13-Jun-14 07:27 33.338112 -127.830712 76 41069ft 505kts
13-Jun-14 07:28 33.372417 -127.668048 77 41069ft 503kts
13-Jun-14 07:29 33.406548 -127.505281 77 41070ft 504kts
13-Jun-14 07:30 33.440425 -127.342372 77 41070ft 503kts
13-Jun-14 07:31 33.474121 -127.179263 77 41070ft 503kts
13-Jun-14 07:32 33.507582 -127.016118 77 41070ft 503kts
13-Jun-14 07:33 33.540821 -126.852767 77 41069ft 503kts
13-Jun-14 07:34 33.573880 -126.689328 78 41070ft 503kts
13-Jun-14 07:35 33.606677 -126.525801 78 41069ft 503kts
13-Jun-14 07:36 33.639274 -126.362286 78 41070ft 503kts
13-Jun-14 07:37 33.671782 -126.197893 78 41069ft 503kts
13-Jun-14 07:38 33.703919 -126.034190 78 41069ft 503kts
13-Jun-14 07:39 33.735827 -125.870424 78 41071ft 502kts
13-Jun-14 07:40 33.767528 -125.706485 78 41059ft 503kts
13-Jun-14 07:41 33.799022 -125.542373 78 41039ft 502kts
13-Jun-14 07:42 33.830283 -125.378224 78 41039ft 502kts
13-Jun-14 07:43 33.861543 -125.214020 78 41039ft 502kts
13-Jun-14 07:44 33.892274 -125.049593 79 41039ft 502kts
13-Jun-14 07:45 33.922896 -124.885068 78 41039ft 502kts
13-Jun-14 07:46 33.953806 -124.720535 78 41030ft 502kts
13-Jun-14 07:47 33.984396 -124.555964 79 41029ft 502kts
13-Jun-14 07:48 34.015256 -124.391416 78 41039ft 502kts
13-Jun-14 07:49 34.046033 -124.225452 78 41053ft 510kts
13-Jun-14 07:50 34.076697 -124.058082 78 41096ft 513kts
13-Jun-14 07:51 34.107251 -123.889844 79 41099ft 513kts
13-Jun-14 07:52 34.137622 -123.721167 79 41099ft 513kts
13-Jun-14 07:53 34.167779 -123.552288 79 41099ft 513kts
13-Jun-14 07:54 34.197912 -123.383432 79 41099ft 513kts
13-Jun-14 07:55 34.227486 -123.214330 79 41099ft 513kts
13-Jun-14 07:56 34.267582 -123.049073 63 41074ft 514kts
13-Jun-14 07:57 34.334968 -122.896026 61 41062ft 515kts
13-Jun-14 07:58 34.402419 -122.742887 61 41052ft 513kts
13-Jun-14 07:59 34.458730 -122.615605 61 41049ft 514kts
13-Jun-14 08:00 34.526033 -122.462406 61 41060ft 514kts
13-Jun-14 08:01 34.593139 -122.308691 61 41069ft 516kts
13-Jun-14 08:02 34.660113 -122.154515 61 41059ft 514kts
13-Jun-14 08:03 34.726760 -122.000377 61 41059ft 514kts
13-Jun-14 08:04 34.793500 -121.845315 61 41069ft 517kts
13-Jun-14 08:05 34.860106 -121.689855 61 41069ft 517kts
13-Jun-14 08:06 34.926493 -121.534190 62 41069ft 517kts
13-Jun-14 08:07 34.992829 -121.377918 62 41069ft 516kts
13-Jun-14 08:08 35.058627 -121.222220 62 41063ft 517kts
13-Jun-14 08:09 35.124428 -121.066178 62 41060ft 514kts
13-Jun-14 08:10 35.189728 -120.910155 62 41000ft 515kts
13-Jun-14 08:11 35.243939 -120.749920 85 39992ft 507kts
13-Jun-14 08:12 35.222628 -120.580645 107 38998ft 507kts
13-Jun-14 08:13 35.191133 -120.412005 106 37996ft 508kts
13-Jun-14 08:14 35.161034 -120.242906 106 36995ft 508kts
13-Jun-14 08:15 35.131196 -120.075047 106 35872ft 501kts
13-Jun-14 08:16 35.099615 -119.908598 112 32289ft 494kts
13-Jun-14 08:17 35.026554 -119.774092 137 29388ft 460kts
13-Jun-14 08:18 34.941719 -119.661096 137 26581ft 441kts
13-Jun-14 08:19 34.860881 -119.552789 135 23863ft 421kts
13-Jun-14 08:20 34.783841 -119.448856 135 21229ft 404kts
13-Jun-14 08:21 34.709730 -119.349490 134 18682ft 389kts
13-Jun-14 08:22 34.637852 -119.253742 134 16098ft 376kts
13-Jun-14 08:23 34.568369 -119.161334 133 13543ft 363kts
13-Jun-14 08:24 34.501487 -119.072637 133 11276ft 341kts
13-Jun-14 08:25 34.442275 -118.994222 134 10998ft 302kts
13-Jun-14 08:26 34.410890 -118.906896 83 9721ft 299kts
13-Jun-14 08:27 34.419725 -118.808771 82 8116ft 285kts
13-Jun-14 08:28 34.428774 -118.713008 82 6515ft 282kts
13-Jun-14 08:29 34.436821 -118.621193 82 5085ft 260kts
13-Jun-14 08:30 34.444212 -118.542346 84 5015ft 223kts
13-Jun-14 08:31 34.400442 -118.508063 177 5010ft 193kts
13-Jun-14 08:32 34.351999 -118.503838 176 4301ft 154kts
13-Jun-14 08:33 34.313927 -118.500241 176 3292ft 128kts
13-Jun-14 08:34 34.278854 -118.496916 175 2420ft 123kts
13-Jun-14 08:35 34.244428 -118.493655 175 1567ft 122kts
13-Jun-14 08:36 34.210851 -118.490481 175 810ft 112kts
13-Jun-14 08:37 34.201208 -118.488737 138 810ft 0kts
13-Jun-14 08:38 34.199850 -118.488198 89 810ft 4kts
13-Jun-14 08:39 34.199849 -118.488024 91 810ft 0kts
13-Jun-14 08:40 34.199849 -118.488024 91 810ft 0kts
13-Jun-14 08:41 34.199849 -118.488024 91 810ft 0kts
13-Jun-14 08:42 34.199849 -118.488024 91 810ft 0kts

Navigation Log

Ident Type
1. PHNL Airport
2. MKK42 Fix
3. CLUTS Fix
4. CEBEN Fix
5. CIVIT Fix
6. FLEXX Fix
7. GITLE Fix
8. GALIP Fix
9. AUDIA Fix
10. MQO Navaid
11. FLW Navaid
12. BURNZ Fix
13. BAILL Fix
14. FIM Navaid
15. TOAKS Fix
16. KVNY Airport